Řízení letového provozu České republiky
Letiste: LKPR Aktualizace: 19.09.2018 19:01:06  UTC
 METAR LKPR 19.09. 19:00 ...
METAR LKPR 191900Z 23009KT CAVOK 19/12 Q1020 NOSIG RMK REG QNH 1018=
 TAF LKPR 19.09. 17:00 ...
TAF LKPR 191700Z 1918/2100 23006KT CAVOK      TEMPO 1918/2007 VRB02KT=